createdAt,value
2022-11-06T03:48:43.378Z,3.17
2022-11-06T11:19:38.860Z,1.95
2022-11-06T11:22:21.370Z,1.77
2022-11-06T11:57:08.929Z,1.80
2022-11-06T12:00:00.157Z,1.45
2022-11-06T12:05:13.605Z,1.70
2022-11-06T12:26:15.849Z,1.73
2022-11-06T12:28:44.954Z,1.50
2022-11-06T12:31:32.728Z,1.50
2022-11-06T12:34:06.526Z,1.50
2022-11-06T12:46:51.022Z,2.08
2022-11-06T12:50:17.158Z,1.80
2022-11-06T12:53:06.428Z,1.63
2022-11-06T14:12:02.079Z,1.83
2022-11-06T14:14:31.774Z,1.90
2022-11-06T14:17:23.444Z,1.70
2022-11-06T14:19:51.000Z,1.90
2022-11-06T14:22:37.145Z,2.10
2022-11-06T14:25:42.417Z,1.80
2022-11-06T14:28:09.556Z,1.60
2022-11-06T14:31:10.319Z,1.50
2022-11-06T14:33:43.049Z,1.80
2022-11-06T14:36:25.050Z,2.08
2022-11-06T14:38:55.261Z,1.85
2022-11-06T14:41:34.625Z,1.90
2022-11-06T14:44:21.275Z,1.90
2022-11-06T14:46:56.565Z,2.60
2022-11-06T14:49:42.126Z,1.80
2022-11-06T14:52:13.127Z,2.20
2022-11-06T14:54:49.671Z,2.28
2022-11-06T14:57:49.080Z,2.10
2022-11-06T15:00:48.836Z,2.33
2022-11-06T15:03:37.513Z,2.20
2022-11-06T15:06:19.570Z,2.47
2022-11-06T15:08:49.547Z,2.47
2022-11-06T15:11:34.996Z,2.63
2022-11-06T15:14:06.364Z,2.65
2022-11-06T15:17:04.675Z,2.88
2022-11-06T15:20:16.186Z,2.63
2022-11-06T15:23:15.013Z,2.30
2022-11-06T15:26:20.891Z,2.17
2022-11-06T15:29:17.231Z,2.22
2022-11-06T15:31:48.186Z,2.42
2022-11-06T15:34:36.747Z,3.08
2022-11-06T15:37:12.668Z,2.20
2022-11-06T15:39:54.690Z,2.00
2022-11-06T15:42:29.035Z,2.22
2022-11-06T15:45:22.995Z,1.92
2022-11-06T15:48:01.722Z,2.13
2022-11-06T15:50:34.817Z,3.78
2022-11-06T15:53:14.528Z,2.83
2022-11-06T15:56:06.926Z,2.55
2022-11-06T15:58:38.627Z,2.45
2022-11-06T16:01:07.877Z,2.20
2022-11-06T16:03:52.718Z,2.17
2022-11-06T16:06:21.149Z,2.30
2022-11-06T16:08:50.321Z,2.03
2022-11-06T16:11:19.802Z,1.90
2022-11-06T16:13:47.510Z,2.08
2022-11-06T16:16:45.816Z,2.38
2022-11-06T16:19:31.114Z,2.40
2022-11-06T16:22:08.478Z,3.03
2022-11-06T16:24:54.065Z,2.22
2022-11-06T16:27:22.891Z,2.30
2022-11-06T16:29:54.423Z,2.55
2022-11-06T16:32:25.348Z,2.13
2022-11-06T16:34:55.170Z,1.63
2022-11-06T16:37:33.166Z,2.00
2022-11-06T16:40:00.314Z,2.15
2022-11-06T16:42:35.276Z,2.20
2022-11-06T16:45:17.802Z,2.42
2022-11-06T16:48:07.751Z,2.17
2022-11-06T16:50:50.613Z,2.17
2022-11-06T16:53:28.354Z,2.40
2022-11-06T16:56:07.384Z,2.15
2022-11-06T16:58:51.128Z,2.10
2022-11-06T17:01:20.702Z,1.85
2022-11-06T17:04:00.268Z,1.90
2022-11-06T17:06:36.104Z,2.33
2022-11-06T17:09:30.451Z,2.05
2022-11-06T17:12:02.262Z,2.10
2022-11-06T17:14:30.699Z,2.15
2022-11-06T17:17:01.661Z,1.75
2022-11-06T17:19:29.316Z,2.75
2022-11-06T17:21:56.706Z,2.15
2022-11-06T17:24:39.066Z,2.08
2022-11-06T17:27:06.612Z,2.28
2022-11-06T17:29:36.380Z,2.40
2022-11-06T17:32:04.051Z,3.03
2022-11-06T17:34:30.957Z,3.50
2022-11-06T17:36:58.001Z,2.05
2022-11-06T17:39:25.751Z,2.50
2022-11-06T17:41:53.654Z,2.30
2022-11-06T17:44:22.297Z,2.95
2022-11-06T17:46:49.347Z,2.00
2022-11-06T17:49:18.496Z,1.70
2022-11-06T17:51:50.472Z,2.08
2022-11-06T17:54:22.587Z,2.10
2022-11-06T17:56:51.267Z,1.98
2022-11-06T17:59:18.330Z,1.80
2022-11-06T18:01:47.749Z,2.20
2022-11-06T18:04:14.989Z,1.70
2022-11-06T18:06:46.015Z,1.92
2022-11-06T18:09:14.799Z,1.92
2022-11-06T18:11:42.826Z,1.85
2022-11-06T18:14:10.722Z,2.08
2022-11-06T18:16:43.721Z,1.65
2022-11-06T18:19:14.318Z,1.98
2022-11-06T18:21:41.497Z,2.00
2022-11-06T18:24:08.627Z,1.80
2022-11-06T18:26:37.352Z,2.10
2022-11-06T18:29:06.048Z,1.83
2022-11-06T18:31:33.730Z,2.17
2022-11-06T18:34:01.387Z,2.25
2022-11-06T18:36:28.380Z,1.98
2022-11-06T18:38:55.620Z,1.60
2022-11-06T18:41:23.040Z,1.60
2022-11-06T18:43:50.601Z,1.83
2022-11-06T18:46:19.079Z,1.88
2022-11-06T18:48:46.255Z,1.63
2022-11-06T18:51:27.779Z,2.03
2022-11-06T18:54:04.563Z,2.30
2022-11-06T18:56:32.122Z,1.40
2022-11-06T18:59:00.658Z,1.95
2022-11-06T19:01:28.825Z,1.90
2022-11-06T19:03:55.859Z,1.98
2022-11-06T19:06:22.903Z,1.95
2022-11-06T19:08:49.979Z,1.67
2022-11-06T19:11:18.601Z,2.35
2022-11-06T19:13:48.221Z,1.95
2022-11-06T19:16:19.493Z,2.55
2022-11-06T19:21:29.823Z,2.80
2022-11-06T19:24:05.183Z,2.08
2022-11-06T19:26:35.792Z,1.98
2022-11-06T19:29:05.014Z,2.40
2022-11-06T19:31:33.247Z,2.08
2022-11-06T19:34:01.900Z,2.00
2022-11-06T19:36:29.967Z,2.40
2022-11-06T19:38:58.665Z,1.98
2022-11-06T19:41:29.619Z,2.00
2022-11-06T19:43:57.182Z,2.10
2022-11-06T19:46:28.535Z,2.00
2022-11-06T19:48:58.002Z,2.33
2022-11-06T19:51:25.850Z,2.17
2022-11-06T19:53:54.786Z,2.38
2022-11-06T19:56:22.222Z,1.90
2022-11-06T19:58:50.653Z,2.17
2022-11-06T20:01:19.005Z,2.17
2022-11-06T20:03:46.243Z,2.25
2022-11-06T20:06:13.804Z,2.30
2022-11-06T20:08:41.181Z,2.60
2022-11-06T20:11:14.967Z,2.40
2022-11-06T20:13:43.618Z,2.58
2022-11-06T20:16:21.904Z,2.13
2022-11-06T20:18:54.114Z,2.63
2022-11-06T20:21:22.683Z,2.60
2022-11-06T20:23:49.779Z,2.58
2022-11-06T20:26:16.864Z,2.53
2022-11-06T20:28:46.678Z,2.88
2022-11-06T20:31:15.850Z,2.92
2022-11-06T20:33:42.854Z,2.83
2022-11-06T20:36:20.522Z,2.40
2022-11-06T20:38:47.510Z,2.55
2022-11-06T20:41:14.869Z,2.40
2022-11-06T20:43:43.216Z,2.50
2022-11-06T20:46:11.592Z,2.70
2022-11-06T20:48:38.911Z,2.35
2022-11-06T20:51:13.736Z,2.60
2022-11-06T20:53:40.752Z,2.25
2022-11-06T20:56:10.858Z,2.35
2022-11-06T20:58:37.863Z,2.60
2022-11-06T21:01:14.565Z,2.60
2022-11-06T21:03:41.887Z,2.22
2022-11-06T21:06:09.530Z,2.92
2022-11-06T21:08:39.100Z,2.58
2022-11-06T21:11:17.205Z,2.70
2022-11-06T21:13:46.456Z,1.98
2022-11-06T21:16:17.056Z,2.10
2022-11-06T21:18:47.741Z,2.22
2022-11-06T21:21:17.750Z,1.50
2022-11-06T21:23:44.669Z,2.20
2022-11-06T21:26:27.723Z,2.63
2022-11-06T21:28:56.031Z,2.50
2022-11-06T21:31:26.714Z,2.45
2022-11-06T21:33:56.989Z,2.37
2022-11-06T21:36:26.741Z,2.60
2022-11-06T21:38:55.141Z,2.60
2022-11-06T21:41:24.884Z,2.42
2022-11-06T21:43:51.947Z,2.72
2022-11-06T21:46:19.948Z,2.60
2022-11-06T21:48:47.882Z,2.35
2022-11-06T21:51:23.447Z,2.35
2022-11-06T21:54:11.367Z,3.33
2022-11-06T21:56:40.217Z,2.65
2022-11-06T21:59:12.363Z,3.13
2022-11-06T22:01:41.465Z,2.97
2022-11-06T22:04:09.623Z,2.72
2022-11-06T22:06:39.920Z,2.50
2022-11-06T22:09:06.928Z,2.75
2022-11-06T22:11:36.856Z,2.33
2022-11-06T22:14:14.342Z,2.10
2022-11-06T22:16:44.662Z,2.47
2022-11-06T22:19:12.380Z,2.50
2022-11-06T22:21:40.486Z,2.55
2022-11-06T22:24:10.158Z,2.72
2022-11-06T22:26:37.785Z,2.53
2022-11-06T22:29:08.868Z,2.63
2022-11-06T22:31:36.007Z,2.60
2022-11-06T22:34:03.771Z,2.28
2022-11-06T22:36:30.649Z,2.60
2022-11-06T22:38:58.955Z,3.00
2022-11-06T22:41:25.947Z,2.83
2022-11-06T22:43:57.706Z,2.60
2022-11-06T22:46:24.848Z,3.10
2022-11-06T22:48:52.406Z,2.83
2022-11-06T22:51:23.411Z,3.22
2022-11-06T22:53:50.846Z,2.60
2022-11-06T22:56:18.801Z,3.13
2022-11-06T22:58:45.955Z,2.78
2022-11-06T23:01:13.822Z,3.20
2022-11-06T23:03:41.182Z,3.80
2022-11-06T23:06:09.876Z,3.28
2022-11-06T23:08:44.143Z,3.80
2022-11-06T23:11:14.481Z,3.13
2022-11-06T23:13:41.558Z,3.30
2022-11-06T23:16:15.352Z,3.25
2022-11-06T23:18:43.052Z,3.10
2022-11-06T23:21:18.811Z,3.60
2022-11-06T23:23:46.152Z,3.50
2022-11-06T23:26:18.936Z,4.38
2022-11-06T23:28:46.716Z,4.05
2022-11-06T23:31:15.579Z,3.25
2022-11-06T23:33:43.402Z,3.40
2022-11-06T23:36:12.940Z,3.40
2022-11-06T23:38:40.775Z,3.78
2022-11-06T23:41:31.720Z,3.53
2022-11-06T23:44:00.088Z,3.20
2022-11-06T23:46:36.401Z,3.20
2022-11-06T23:49:03.493Z,3.08
2022-11-06T23:51:30.354Z,3.40
2022-11-06T23:53:57.309Z,3.05
2022-11-06T23:56:24.211Z,3.55
2022-11-06T23:58:51.076Z,2.80
